aviador You're here:

SKSP Decoded Metar

SAN ANDRES ISLAND in COLOMBIA
Report Time2017-08-19 20:00:00
UTC Time2017-08-19 20:18:41
Flight Rules vfr VFR
Wind050° at 10 kt
W.Decomp.*RWY 06: 9.9 kt HW 1.4 kt LCW
W.Rank050° ranks 4
Current wind is above 050° avg. (7.3)
Visibility9999 m
Phenomena:N/A
Clouds:Few 018 Hf
Broken 200 Hf
Expected CloudBase > 2,000 ft AGL from Temp-Dew spread
Ceiling20,000 ft
Temp31°C (ISA +16)
Dew Point26°C (75% RH)
Heat Index39.2°C
QNH1009 hPa
Density Alt2,395 ft
Elevation-7 ft
Report Wrong Elevation
Raw Report
METAR SKSP 192000Z 05010KT 020V100 9999 FEW018 BKN200 31/26 A2980=

Extra information for SKSP:More info

Metar Taf Metar & Taf Last 4 Metars F.Rules Stats Wind Profile Meteogram Temp Stats Airport Information Weather charts Add Link Nearby VenuesMetar ALERT Operation Metar Decoded Social comments